Time;durP1;ratioP1;P1;durP2;ratioP2;P2;SDS_P1;SDS_P2;PMS_P1;PMS_P2;Temp;Humidity;BMP_temperature;BMP_pressure;BME280_temperature;BME280_humidity;BME280_pressure;Samples;Min_cycle;Max_cycle;Signal;HPM_P1;HPM_P2
2023/09/24 00:01:27;;;;;;;2.60;2.40;;;;;;;16.53;100.00;100957.03;5051943;28;20047;-68
2023/09/24 00:03:53;;;;;;;2.20;1.98;;;;;;;16.50;100.00;100980.78;5052189;28;20376;-68
2023/09/24 00:06:18;;;;;;;2.08;1.67;;;;;;;16.51;100.00;100982.44;5051969;28;20025;-67
2023/09/24 00:08:44;;;;;;;3.08;1.90;;;;;;;16.33;100.00;100962.25;5051972;28;20056;-68
2023/09/24 00:11:09;;;;;;;1.98;1.30;;;;;;;16.38;100.00;100978.63;5050644;28;20021;-68
2023/09/24 00:13:35;;;;;;;2.35;2.13;;;;;;;16.30;100.00;100973.41;5051958;28;20500;-67
2023/09/24 00:16:06;;;;;;;2.42;1.60;;;;;;;16.17;100.00;100954.47;5051739;28;20068;-69
2023/09/24 00:18:35;;;;;;;2.20;1.92;;;;;;;16.29;100.00;100973.59;5050618;28;20104;-69
2023/09/24 00:21:01;;;;;;;2.03;1.83;;;;;;;16.28;100.00;100988.06;5051845;28;20469;-67
2023/09/24 00:23:30;;;;;;;2.25;2.05;;;;;;;16.10;100.00;100951.72;5051939;28;20024;-67
2023/09/24 00:25:56;;;;;;;3.10;1.95;;;;;;;16.27;100.00;100987.22;5051742;28;20031;-67
2023/09/24 00:28:23;;;;;;;2.92;2.08;;;;;;;16.21;100.00;100993.38;5051737;28;20392;-67
2023/09/24 00:30:50;;;;;;;3.92;1.63;;;;;;;16.25;100.00;100983.91;5051555;28;20094;-68
2023/09/24 00:33:18;;;;;;;2.10;1.87;;;;;;;15.99;100.00;100956.81;5051832;28;20049;-68
2023/09/24 00:35:44;;;;;;;3.50;1.65;;;;;;;16.18;100.00;100991.06;5053857;28;20041;-68
2023/09/24 00:38:09;;;;;;;1.92;1.60;;;;;;;16.25;100.00;101000.03;5055939;28;20495;-67
2023/09/24 00:40:35;;;;;;;2.20;1.90;;;;;;;16.17;100.00;100994.78;5056245;28;20060;-68
2023/09/24 00:43:01;;;;;;;2.60;1.43;;;;;;;16.07;100.00;100997.78;5055560;28;20506;-68
2023/09/24 00:45:26;;;;;;;3.60;1.90;;;;;;;16.14;100.00;101023.88;5055529;28;20024;-69
2023/09/24 00:47:55;;;;;;;1.83;1.60;;;;;;;16.05;100.00;101015.13;5055481;28;20063;-68
2023/09/24 00:50:21;;;;;;;2.05;1.73;;;;;;;16.05;100.00;101015.13;5055744;28;20017;-67
2023/09/24 00:52:50;;;;;;;2.10;1.90;;;;;;;15.93;100.00;101005.94;5055499;28;20025;-67
2023/09/24 00:55:16;;;;;;;1.87;1.77;;;;;;;15.89;100.00;101016.19;5055652;28;20053;-67
2023/09/24 00:57:46;;;;;;;2.27;1.80;;;;;;;15.85;100.00;101024.84;5055316;28;20068;-68
2023/09/24 01:00:16;;;;;;;2.10;1.70;;;;;;;15.72;100.00;101036.28;5054444;28;20121;-67
2023/09/24 01:02:44;;;;;;;1.40;1.30;;;;;;;15.38;100.00;101010.03;5056066;28;20033;-67
2023/09/24 01:05:10;;;;;;;;;;;;;;;15.69;100.00;101058.97;5056222;28;20025;-68
2023/09/24 01:07:41;;;;;;;2.90;1.83;;;;;;;15.53;100.00;101048.41;5055559;28;20321;-68
2023/09/24 01:10:08;;;;;;;2.27;1.73;;;;;;;15.47;100.00;101049.16;5055470;28;20477;-67
2023/09/24 01:12:34;;;;;;;4.70;2.43;;;;;;;15.56;100.00;101065.97;5056873;28;20017;-68
2023/09/24 01:15:00;;;;;;;2.20;2.00;;;;;;;15.44;100.00;101036.94;5058104;28;20033;-68
2023/09/24 01:17:26;;;;;;;2.47;1.60;;;;;;;15.58;100.00;101066.63;5039374;28;20021;-67
2023/09/24 01:19:53;;;;;;;3.73;2.40;;;;;;;15.56;100.00;101055.25;5057570;28;20021;-69
2023/09/24 01:22:19;;;;;;;2.13;1.83;;;;;;;15.50;100.00;101049.63;5056703;28;20044;-67
2023/09/24 01:24:45;;;;;;;2.70;1.80;;;;;;;15.54;100.00;101063.50;5057100;28;20029;-68
2023/09/24 01:27:10;;;;;;;2.90;2.00;;;;;;;15.46;100.00;101047.50;5057262;28;20075;-69
2023/09/24 01:29:36;;;;;;;3.13;2.13;;;;;;;15.55;100.00;101062.47;5040396;28;20112;-69
2023/09/24 01:32:06;;;;;;;3.93;1.93;;;;;;;15.50;100.00;101056.84;5042198;28;20045;-67
2023/09/24 01:34:36;;;;;;;3.07;2.03;;;;;;;15.52;100.00;101052.09;5054787;28;20041;-69
2023/09/24 01:37:08;;;;;;;2.80;2.33;;;;;;;15.58;100.00;101061.25;5054730;28;20384;-69
2023/09/24 01:39:36;;;;;;;2.90;2.23;;;;;;;15.57;100.00;101049.69;5054532;28;20031;-67
2023/09/24 01:42:02;;;;;;;3.33;2.20;;;;;;;15.52;100.00;101052.09;5054819;28;20025;-67
2023/09/24 01:44:32;;;;;;;1.97;1.77;;;;;;;15.45;100.00;101041.31;5055548;28;20484;-67
2023/09/24 01:46:58;;;;;;;2.30;2.10;;;;;;;15.38;100.00;101036.88;5055177;28;20021;-68
2023/09/24 01:49:24;;;;;;;2.87;1.67;;;;;;;15.34;100.00;101027.53;5055441;28;20025;-67
2023/09/24 01:51:50;;;;;;;3.10;2.80;;;;;;;15.21;100.00;101011.25;5054269;28;20131;-67
2023/09/24 01:54:15;;;;;;;3.27;2.47;;;;;;;15.31;100.00;101038.63;5054542;28;20064;-69
2023/09/24 01:56:41;;;;;;;2.60;2.40;;;;;;;15.17;100.00;101022.34;5053130;28;20060;-68
2023/09/24 01:59:07;;;;;;;3.40;2.47;;;;;;;15.17;100.00;101017.00;5054214;28;20116;-69
2023/09/24 02:01:33;;;;;;;6.37;2.20;;;;;;;15.23;100.00;101014.56;5054345;28;20052;-68
2023/09/24 02:04:01;;;;;;;3.13;2.60;;;;;;;15.27;100.00;101027.44;5054078;28;20425;-67
2023/09/24 02:06:27;;;;;;;3.05;2.60;;;;;;;15.26;100.00;101019.56;5053935;28;20025;-69
2023/09/24 02:08:52;;;;;;;3.30;2.60;;;;;;;15.18;100.00;101025.88;5054169;28;20029;-69
2023/09/24 02:11:20;;;;;;;2.70;2.20;;;;;;;15.36;100.00;101080.00;5054222;28;20020;-68
2023/09/24 02:13:46;;;;;;;2.47;2.23;;;;;;;15.31;100.00;101081.56;5053894;28;20140;-68
2023/09/24 02:16:12;;;;;;;3.60;2.80;;;;;;;14.96;100.00;101041.03;5053752;28;20487;-68
2023/09/24 02:18:39;;;;;;;2.57;2.37;;;;;;;15.17;100.00;101092.13;5053731;28;20534;-69
2023/09/24 02:21:14;;;;;;;2.30;2.00;;;;;;;15.21;100.00;101103.31;5053763;28;20158;-66
2023/09/24 02:23:41;;;;;;;3.87;2.47;;;;;;;15.13;100.00;101098.03;5054144;28;20033;-67
2023/09/24 02:26:08;;;;;;;2.63;2.43;;;;;;;15.10;100.00;101112.66;5053919;28;20456;-67
2023/09/24 02:28:40;;;;;;;3.27;2.60;;;;;;;15.14;100.00;101113.13;5053774;28;20036;-68
2023/09/24 02:31:07;;;;;;;5.07;2.70;;;;;;;15.26;100.00;101126.91;5053673;28;20391;-68
2023/09/24 02:33:36;;;;;;;5.90;3.10;;;;;;;15.18;100.00;101117.94;5053412;28;20437;-67
2023/09/24 02:36:04;;;;;;;4.45;3.22;;;;;;;15.18;100.00;101120.59;5053554;28;20393;-68
2023/09/24 02:38:29;;;;;;;3.60;2.63;;;;;;;15.16;100.00;101117.28;5052330;28;20052;-66
2023/09/24 02:40:58;;;;;;;2.60;2.40;;;;;;;15.20;100.00;101109.69;5053679;28;20064;-67
2023/09/24 02:43:23;;;;;;;3.63;2.83;;;;;;;15.22;100.00;101121.06;5053495;28;20029;-69
2023/09/24 02:45:49;;;;;;;2.63;2.43;;;;;;;15.24;100.00;101124.41;5053414;28;20052;-68
2023/09/24 02:48:18;;;;;;;6.30;2.77;;;;;;;15.15;100.00;101078.06;5052130;28;20440;-69
2023/09/24 02:50:44;;;;;;;3.00;2.67;;;;;;;15.02;100.00;101056.38;5053406;28;20128;-67
2023/09/24 02:53:10;;;;;;;3.60;2.90;;;;;;;15.01;100.00;101081.53;5053659;28;20025;-68
2023/09/24 02:55:36;;;;;;;3.03;2.80;;;;;;;14.97;100.00;101092.81;5053299;28;20029;-69
2023/09/24 02:58:05;;;;;;;2.70;2.50;;;;;;;15.14;100.00;101097.84;5052387;28;20050;-68
2023/09/24 03:00:36;;;;;;;3.73;3.20;;;;;;;15.18;100.00;101090.25;5052850;28;20040;-67
2023/09/24 03:03:04;;;;;;;4.40;3.00;;;;;;;15.30;100.00;101101.34;5053681;28;20077;-67
2023/09/24 03:05:31;;;;;;;3.50;2.97;;;;;;;15.25;100.00;101087.66;5052970;28;20465;-68
2023/09/24 03:08:02;;;;;;;5.43;3.90;;;;;;;15.30;100.00;101101.34;5052514;28;20159;-69
2023/09/24 03:10:30;;;;;;;4.63;3.93;;;;;;;15.32;100.00;101094.78;5035169;28;20054;-68
2023/09/24 03:12:57;;;;;;;3.95;2.92;;;;;;;15.29;100.00;101086.28;5052837;28;20032;-69
2023/09/24 03:15:26;;;;;;;4.10;2.70;;;;;;;15.42;100.00;101099.88;5052282;28;20063;-68
2023/09/24 03:17:53;;;;;;;3.40;2.90;;;;;;;15.43;100.00;101091.66;5052620;28;20357;-68
2023/09/24 03:20:19;;;;;;;3.43;3.13;;;;;;;15.49;100.00;101108.84;5053631;28;20021;-67
2023/09/24 03:22:50;;;;;;;3.20;2.90;;;;;;;15.32;100.00;101094.78;5052918;28;20094;-69
2023/09/24 03:25:27;;;;;;;3.73;3.07;;;;;;;15.47;100.00;101102.84;5052773;28;20491;-68
2023/09/24 03:27:58;;;;;;;4.27;2.37;;;;;;;15.38;100.00;101093.22;5052901;28;20476;-67
2023/09/24 03:30:25;;;;;;;6.53;2.40;;;;;;;15.45;100.00;101118.31;5052628;28;20083;-68
2023/09/24 03:32:55;;;;;;;3.83;3.00;;;;;;;15.38;100.00;101118.22;5052819;28;20059;-66
2023/09/24 03:35:26;;;;;;;3.20;2.90;;;;;;;15.42;100.00;101129.41;5054512;28;20032;-67
2023/09/24 03:37:52;;;;;;;2.87;2.57;;;;;;;15.36;100.00;101138.22;5061923;28;20025;-69
2023/09/24 03:40:20;;;;;;;4.77;3.33;;;;;;;15.26;100.00;101137.63;5063609;28;20093;-68
2023/09/24 03:42:47;;;;;;;3.83;2.90;;;;;;;15.14;100.00;101145.31;5056398;28;20037;-68
2023/09/24 03:45:15;;;;;;;2.63;2.43;;;;;;;14.94;100.00;101136.94;5051179;28;20119;-67
2023/09/24 03:47:42;;;;;;;3.05;2.00;;;;;;;14.89;100.00;101147.38;5052411;28;20085;-68
2023/09/24 03:50:16;;;;;;;2.50;1.83;;;;;;;14.76;100.00;101141.81;5052650;28;20067;-67
2023/09/24 03:52:46;;;;;;;2.20;2.00;;;;;;;14.81;100.00;101155.50;5052410;28;20504;-68
2023/09/24 03:55:13;;;;;;;2.10;1.90;;;;;;;14.75;100.00;101164.28;5053087;28;20031;-69
2023/09/24 03:57:40;;;;;;;4.90;2.30;;;;;;;14.74;100.00;101175.97;5054432;28;20017;-68
2023/09/24 04:00:11;;;;;;;4.17;2.40;;;;;;;14.74;100.00;101182.19;5054112;28;20032;-69
2023/09/24 04:02:39;;;;;;;6.10;2.70;;;;;;;14.64;100.00;101164.69;5052322;28;20028;-67
2023/09/24 04:05:08;;;;;;;2.53;2.33;;;;;;;14.61;100.00;101165.03;5051990;28;20110;-68
2023/09/24 04:07:37;;;;;;;3.00;2.20;;;;;;;14.66;100.00;101184.09;5050954;28;20047;-70
2023/09/24 04:10:03;;;;;;;;;;;;;;;14.71;100.00;101187.06;5052214;28;20131;-67
2023/09/24 04:12:33;;;;;;;2.73;2.53;;;;;;;14.64;100.00;101180.75;5052075;28;19909;-69
2023/09/24 04:15:00;;;;;;;5.60;2.07;;;;;;;14.72;100.00;101188.75;5051917;28;20036;-68
2023/09/24 04:17:25;;;;;;;3.33;2.30;;;;;;;14.74;100.00;101184.84;5053151;28;20078;-67
2023/09/24 04:19:52;;;;;;;3.97;2.30;;;;;;;14.88;100.00;101194.00;5052952;28;20036;-67
2023/09/24 04:22:18;;;;;;;3.17;2.67;;;;;;;14.95;100.00;101202.97;5051712;28;20056;-67
2023/09/24 04:24:43;;;;;;;2.90;2.33;;;;;;;14.97;100.00;101200.94;5052532;28;20111;-68
2023/09/24 04:27:09;;;;;;;2.90;2.33;;;;;;;14.96;100.00;101215.38;5051769;28;20376;-69
2023/09/24 04:29:35;;;;;;;3.97;1.70;;;;;;;14.92;100.00;101219.44;5051819;28;20028;-68
2023/09/24 04:32:00;;;;;;;2.13;1.90;;;;;;;14.91;100.00;101225.81;5051620;28;20444;-69
2023/09/24 04:34:26;;;;;;;3.50;2.20;;;;;;;14.97;100.00;101229.59;5051299;28;20040;-68
2023/09/24 04:36:51;;;;;;;3.00;2.10;;;;;;;14.84;100.00;101209.59;5051707;28;20023;-68
2023/09/24 04:39:18;;;;;;;3.50;2.03;;;;;;;15.02;100.00;101237.94;5051798;28;20587;-68
2023/09/24 04:41:44;;;;;;;4.37;2.07;;;;;;;15.14;100.00;101248.09;5051524;28;20485;-68
2023/09/24 04:44:10;;;;;;;2.73;2.13;;;;;;;15.16;100.00;101251.41;5051536;28;20437;-68
2023/09/24 04:46:36;;;;;;;3.10;2.27;;;;;;;15.24;100.00;101260.41;5051431;28;20064;-67
2023/09/24 04:49:05;;;;;;;4.90;2.70;;;;;;;15.21;100.00;101258.09;5051354;28;20033;-67
2023/09/24 04:51:32;;;;;;;2.77;1.80;;;;;;;15.05;100.00;101235.75;5051588;28;20074;-68
2023/09/24 04:54:01;;;;;;;2.63;1.87;;;;;;;15.18;100.00;101270.84;5051669;28;20167;-68
2023/09/24 04:56:27;;;;;;;2.83;2.27;;;;;;;15.13;100.00;101261.69;5051413;28;20464;-68
2023/09/24 04:58:53;;;;;;;2.67;1.80;;;;;;;15.08;100.00;101275.63;5051398;28;20120;-69
2023/09/24 05:01:19;;;;;;;2.03;1.77;;;;;;;15.14;100.00;101291.00;5033538;28;20167;-68
2023/09/24 05:03:48;;;;;;;2.30;1.93;;;;;;;15.09;100.00;101290.72;5051338;28;20017;-67
2023/09/24 05:06:14;;;;;;;4.23;2.13;;;;;;;15.08;100.00;101280.16;5051147;28;20085;-70
2023/09/24 05:08:40;;;;;;;3.23;2.10;;;;;;;15.10;100.00;101288.88;5050315;28;20028;-68
2023/09/24 05:11:05;;;;;;;2.00;1.43;;;;;;;15.12;100.00;101279.63;5051544;28;20122;-69
2023/09/24 05:13:31;;;;;;;2.90;2.00;;;;;;;15.30;100.00;101294.56;5051621;28;20029;-67
2023/09/24 05:16:00;;;;;;;2.30;2.10;;;;;;;15.35;100.00;101284.16;5051354;28;20033;-68
2023/09/24 05:18:26;;;;;;;3.57;1.67;;;;;;;15.45;100.00;101293.59;5051863;28;20071;-70
2023/09/24 05:20:52;;;;;;;3.80;1.70;;;;;;;15.55;100.00;101298.72;5051903;28;20025;-69
2023/09/24 05:23:17;;;;;;;4.10;1.93;;;;;;;15.50;100.00;101283.16;5037093;28;20031;-68
2023/09/24 05:25:43;;;;;;;4.30;2.60;;;;;;;15.60;100.00;101295.50;5055177;28;20033;-67
2023/09/24 05:28:09;;;;;;;4.03;2.80;;;;;;;15.63;100.00;101314.78;5055372;28;20105;-70
2023/09/24 05:30:35;;;;;;;3.83;2.40;;;;;;;15.65;100.00;101319.97;5054775;28;20029;-70
2023/09/24 05:33:03;;;;;;;4.17;3.43;;;;;;;15.43;100.00;101292.13;5055239;28;20053;-71
2023/09/24 05:35:29;;;;;;;6.18;2.92;;;;;;;15.55;100.00;101304.06;5055000;28;20068;-66
2023/09/24 05:37:54;;;;;;;4.17;3.10;;;;;;;15.52;100.00;101309.81;5053855;28;20110;-70
2023/09/24 05:40:20;;;;;;;3.33;2.50;;;;;;;15.51;100.00;101305.47;5054834;28;20047;-69
2023/09/24 05:42:46;;;;;;;3.77;3.37;;;;;;;15.66;100.00;101330.53;5054789;28;20368;-68
2023/09/24 05:45:12;;;;;;;3.80;3.20;;;;;;;15.58;100.00;101309.09;5054639;28;20029;-68
2023/09/24 05:47:38;;;;;;;5.27;3.37;;;;;;;15.63;100.00;101304.06;5054785;28;20031;-70
2023/09/24 05:50:03;;;;;;;4.57;3.27;;;;;;;15.70;100.00;101309.53;5053479;28;20025;-70
2023/09/24 05:52:30;;;;;;;4.50;2.97;;;;;;;15.78;100.00;101326.38;5055040;28;20078;-68
2023/09/24 05:54:57;;;;;;;4.97;3.57;;;;;;;15.88;100.00;101331.47;5053522;28;20029;-69
2023/09/24 05:57:26;;;;;;;4.10;3.70;;;;;;;15.90;100.00;101333.97;5054914;28;20036;-68
2023/09/24 05:59:55;;;;;;;5.07;3.80;;;;;;;15.99;100.00;101339.09;5054757;28;20122;-68
2023/09/24 06:02:24;;;;;;;5.50;4.20;;;;;;;15.92;100.00;101331.97;5054433;28;20024;-67
2023/09/24 06:04:50;;;;;;;4.87;4.13;;;;;;;15.65;100.00;101302.03;5054411;28;20031;-70
2023/09/24 06:07:16;;;;;;;5.43;3.83;;;;;;;15.90;100.00;101344.72;5054408;28;20032;-68
2023/09/24 06:09:41;;;;;;;4.83;3.90;;;;;;;15.61;100.00;101311.47;5052196;28;20052;-67
2023/09/24 06:12:07;;;;;;;4.93;4.23;;;;;;;15.86;100.00;101343.41;5054336;28;20017;-68
2023/09/24 06:14:33;;;;;;;6.73;4.17;;;;;;;15.83;100.00;101350.00;5053332;28;20035;-69
2023/09/24 06:16:59;;;;;;;4.30;3.90;;;;;;;15.72;100.00;101337.84;5052484;28;20378;-69
2023/09/24 06:19:25;;;;;;;6.33;4.67;;;;;;;15.82;100.00;101358.25;5053577;28;20017;-71
2023/09/24 06:21:50;;;;;;;6.27;4.93;;;;;;;15.86;100.00;101356.84;5053774;28;20021;-70
2023/09/24 06:24:16;;;;;;;6.43;5.17;;;;;;;15.88;100.00;101352.13;5052205;28;20017;-68
2023/09/24 06:26:42;;;;;;;5.83;5.33;;;;;;;15.83;100.00;101341.09;5053889;28;20040;-67
2023/09/24 06:29:08;;;;;;;6.83;5.60;;;;;;;15.91;100.00;101336.50;5053762;28;20037;-70
2023/09/24 06:31:36;;;;;;;7.47;5.50;;;;;;;16.02;100.00;101343.28;5053114;28;20040;-70
2023/09/24 06:34:02;;;;;;;8.90;5.00;;;;;;;16.15;100.00;101351.50;5051088;28;20405;-69
2023/09/24 06:36:27;;;;;;;6.87;5.73;;;;;;;16.32;100.00;101371.81;5053633;28;20280;-74
2023/09/24 06:38:54;;;;;;;5.53;5.00;;;;;;;16.31;100.00;101362.09;5055488;28;20040;-68
2023/09/24 06:41:19;;;;;;;7.70;6.20;;;;;;;16.38;100.00;101384.53;5052016;28;20179;-68
2023/09/24 06:43:45;;;;;;;5.80;5.07;;;;;;;16.26;100.00;101366.38;5053074;28;20470;-72
2023/09/24 06:46:11;;;;;;;5.67;4.70;;;;;;;16.32;100.00;101387.13;5053379;28;20583;-69
2023/09/24 06:48:36;;;;;;;6.90;5.87;;;;;;;16.30;100.00;101392.69;5051883;28;20037;-71
2023/09/24 06:51:09;;;;;;;7.70;6.23;;;;;;;16.30;100.00;101392.69;5052432;28;20219;-73
2023/09/24 06:53:37;;;;;;;7.00;5.93;;;;;;;16.18;100.00;101383.38;5053334;28;20032;-72
2023/09/24 06:56:05;;;;;;;7.88;6.00;;;;;;;16.11;100.00;101380.59;5051180;28;20415;-70
2023/09/24 06:58:37;;;;;;;7.87;6.20;;;;;;;16.24;100.00;101412.25;5050577;28;20025;-68
2023/09/24 07:01:03;;;;;;;8.20;7.17;;;;;;;16.12;100.00;101405.63;5052906;28;20472;-66
2023/09/24 07:03:32;;;;;;;6.53;5.93;;;;;;;16.12;100.00;101411.00;5052597;28;20033;-68
2023/09/24 07:05:58;;;;;;;7.57;6.80;;;;;;;15.91;100.00;101378.66;5052987;28;20033;-68
2023/09/24 07:08:24;;;;;;;7.27;6.57;;;;;;;15.94;100.00;101371.06;5052965;28;20029;-70
2023/09/24 07:11:24;;;;;;;7.37;6.50;;;;;;;16.19;100.00;101425.41;5052841;28;20040;-68
2023/09/24 07:13:50;;;;;;;8.90;8.00;;;;;;;16.13;100.00;101411.84;5054728;28;20472;-68
2023/09/24 07:16:20;;;;;;;7.57;6.73;;;;;;;16.18;100.00;101418.31;5058597;28;20025;-68
2023/09/24 07:18:46;;;;;;;9.53;6.80;;;;;;;16.27;100.00;101432.53;5056631;28;20048;-67
2023/09/24 07:21:12;;;;;;;8.33;7.53;;;;;;;16.41;100.00;101435.22;5055468;28;20028;-69
2023/09/24 07:23:39;;;;;;;8.77;6.73;;;;;;;16.41;100.00;101434.38;5055394;28;20693;-68
2023/09/24 07:26:08;;;;;;;7.40;6.15;;;;;;;16.20;100.00;101428.91;5057471;28;20035;-69
2023/09/24 07:28:34;;;;;;;7.63;6.53;;;;;;;16.19;100.00;101433.47;5056329;28;20106;-66
2023/09/24 07:31:00;;;;;;;8.73;6.83;;;;;;;16.06;100.00;101436.75;5056652;28;20074;-68
2023/09/24 07:33:26;;;;;;;10.33;6.13;;;;;;;16.30;100.00;101446.44;5052851;28;20049;-69
2023/09/24 07:35:52;;;;;;;6.57;5.97;;;;;;;16.40;100.00;101438.94;5052803;28;20476;-71
2023/09/24 07:38:18;;;;;;;7.77;7.07;;;;;;;16.55;100.00;101448.88;5051534;28;20111;-65
2023/09/24 07:40:44;;;;;;;7.60;5.97;;;;;;;16.58;100.00;101445.81;5052585;28;20051;-68
2023/09/24 07:43:13;;;;;;;9.73;7.03;;;;;;;16.68;100.00;101468.75;5048141;28;20029;-70
2023/09/24 07:45:42;;;;;;;6.13;4.67;;;;;;;16.66;100.00;101448.44;5032155;28;20037;-67
2023/09/24 07:48:13;;;;;;;7.88;6.50;;;;;;;16.81;100.00;101462.72;5047353;28;20025;-68
2023/09/24 07:50:38;;;;;;;6.95;6.25;;;;;;;16.80;100.00;101469.13;5040730;28;20036;-71
2023/09/24 07:53:05;;;;;;;8.90;5.90;;;;;;;16.77;100.00;101466.81;5051836;28;20345;-71
2023/09/24 07:55:31;;;;;;;8.67;5.80;;;;;;;16.58;100.00;101452.03;5045663;28;20060;-70
2023/09/24 07:57:57;;;;;;;7.40;6.07;;;;;;;16.76;100.00;101478.56;5052214;28;20033;-69
2023/09/24 08:00:22;;;;;;;6.90;6.30;;;;;;;16.78;100.00;101473.03;5053072;28;20021;-67
2023/09/24 08:02:48;;;;;;;7.05;6.40;;;;;;;16.97;100.00;101478.66;5050178;28;20029;-68
2023/09/24 08:05:14;;;;;;;6.40;5.80;;;;;;;17.10;100.00;101482.56;5052332;28;20118;-69
2023/09/24 08:07:40;;;;;;;6.78;5.88;;;;;;;17.34;100.00;101490.28;5056820;28;20025;-68
2023/09/24 08:10:06;;;;;;;8.88;5.65;;;;;;;17.43;100.00;101483.78;5059306;28;20040;-69
2023/09/24 08:12:31;;;;;;;6.32;5.45;;;;;;;17.55;100.00;101492.19;5059255;28;20093;-70
2023/09/24 08:14:57;;;;;;;9.95;5.43;;;;;;;17.54;100.00;101485.97;5061334;28;20372;-70
2023/09/24 08:17:23;;;;;;;6.50;5.80;;;;;;;17.62;100.00;101499.31;5057810;28;20033;-68
2023/09/24 08:19:49;;;;;;;5.65;5.15;;;;;;;17.64;100.00;101502.69;5056574;28;20039;-68
2023/09/24 08:22:15;;;;;;;6.47;5.38;;;;;;;17.72;100.00;101512.50;5058197;28;20075;-69
2023/09/24 08:24:41;;;;;;;6.40;5.20;;;;;;;17.63;100.00;101503.66;5057792;28;20400;-69
2023/09/24 08:27:06;;;;;;;6.20;5.55;;;;;;;17.65;100.00;101508.91;5052394;28;20057;-70
2023/09/24 08:29:33;;;;;;;8.25;6.10;;;;;;;17.69;100.00;101504.00;5050769;28;20120;-71
2023/09/24 08:31:59;;;;;;;6.25;5.60;;;;;;;17.71;100.00;101502.78;5051090;28;20102;-72
2023/09/24 08:34:28;;;;;;;5.90;5.38;;;;;;;17.83;100.00;101513.84;5051789;28;20055;-70
2023/09/24 08:36:54;;;;;;;5.55;5.03;;;;;;;17.89;100.00;101513.91;5051399;28;20389;-68
2023/09/24 08:39:19;;;;;;;5.50;4.57;;;;;;;17.61;100.00;101462.63;5052974;28;20037;-69
2023/09/24 08:41:45;;;;;;;5.80;5.30;;;;;;;17.49;100.00;101464.16;5050310;28;20067;-67
2023/09/24 08:44:17;;;;;;;4.85;4.25;;;;;;;17.73;100.00;101516.03;5053442;28;20421;-69
2023/09/24 08:46:47;;;;;;;5.53;5.03;;;;;;;17.70;100.00;101517.25;5052993;28;20044;-69
2023/09/24 08:49:14;;;;;;;8.77;5.07;;;;;;;17.76;100.00;101512.97;5054984;28;20033;-68
2023/09/24 08:51:40;;;;;;;5.93;4.30;;;;;;;17.65;100.00;101498.94;5052393;28;20203;-70
2023/09/24 08:54:06;;;;;;;5.05;4.40;;;;;;;17.61;100.00;101503.03;5053105;28;20021;-68
2023/09/24 08:56:32;;;;;;;7.88;5.60;;;;;;;17.57;100.00;101512.50;5053894;28;20055;-70
2023/09/24 08:58:58;;;;;;;4.82;4.32;;;;;;;17.45;100.00;101514.03;5054890;28;20029;-68
2023/09/24 09:01:23;;;;;;;4.90;4.50;;;;;;;17.27;100.00;101492.91;5055395;28;20039;-67
2023/09/24 09:03:49;;;;;;;5.22;4.07;;;;;;;17.44;100.00;101522.31;5055458;28;20028;-69
2023/09/24 09:06:35;;;;;;;4.68;4.03;;;;;;;17.54;100.00;101539.84;5055498;28;20029;-69
2023/09/24 09:09:02;;;;;;;4.28;3.88;;;;;;;17.46;100.00;101520.28;5054251;28;20052;-68
2023/09/24 09:11:42;;;;;;;4.90;4.10;;;;;;;17.59;100.00;101532.00;5056156;28;20479;-70
2023/09/24 09:14:09;;;;;;;5.13;4.63;;;;;;;17.25;100.00;101486.88;5056028;28;20064;-68
2023/09/24 09:16:57;;;;;;;4.93;3.60;;;;;;;17.66;100.00;101532.13;5054280;28;20376;-67
2023/09/24 09:19:44;;;;;;;;;;;;;;;17.74;100.00;101539.25;5055906;28;20500;-68
2023/09/24 09:22:17;;;;;;;4.43;3.40;;;;;;;17.63;97.65;101557.53;5056863;28;19915;-69
2023/09/24 09:24:43;;;;;;;6.20;4.07;;;;;;;17.42;97.42;101518.97;5055563;28;20120;-72
2023/09/24 09:27:09;;;;;;;4.85;3.85;;;;;;;17.35;98.28;101513.53;5054657;28;20452;-68
2023/09/24 09:29:34;;;;;;;7.30;3.30;;;;;;;17.36;97.50;101535.91;5055153;28;20033;-69
2023/09/24 09:32:01;;;;;;;3.90;3.40;;;;;;;17.40;96.97;101556.03;5054169;28;20416;-69
2023/09/24 09:34:36;;;;;;;5.68;3.75;;;;;;;17.52;96.73;101555.34;5054786;28;20045;-71
2023/09/24 09:37:17;;;;;;;6.00;4.38;;;;;;;17.68;96.15;101550.81;5038425;28;20037;-69
2023/09/24 09:39:44;;;;;;;5.30;4.05;;;;;;;17.81;95.83;101567.94;5053738;28;20123;-69
2023/09/24 09:42:12;;;;;;;4.60;3.42;;;;;;;17.77;95.30;101528.09;5056267;28;20036;-66
2023/09/24 09:44:39;;;;;;;;;;;;;;;18.18;94.66;101579.50;5055618;28;20116;-69
2023/09/24 09:47:08;;;;;;;4.72;3.25;;;;;;;18.05;91.75;101571.31;5054543;28;20384;-69
2023/09/24 09:49:34;;;;;;;;;;;;;;;18.05;93.66;101574.00;5055206;28;20419;-68
2023/09/24 09:52:02;;;;;;;5.35;3.60;;;;;;;17.76;92.80;101543.44;5054849;28;19916;-67
2023/09/24 09:54:34;;;;;;;5.23;3.50;;;;;;;17.85;92.27;101554.91;5054357;28;20029;-69
2023/09/24 09:57:01;;;;;;;4.68;3.03;;;;;;;17.97;92.01;101577.66;5054369;28;20021;-69
2023/09/24 09:59:27;;;;;;;4.50;3.95;;;;;;;17.92;91.82;101570.13;5054064;28;20032;-70
2023/09/24 10:01:54;;;;;;;3.38;3.03;;;;;;;17.85;91.76;101579.16;5054161;28;20506;-68
2023/09/24 10:04:30;;;;;;;5.30;3.47;;;;;;;17.89;94.13;101591.22;5054311;28;20031;-70
2023/09/24 10:07:02;;;;;;;7.78;3.80;;;;;;;17.89;94.50;101585.84;5052731;28;20522;-70
2023/09/24 10:09:29;;;;;;;5.40;3.65;;;;;;;17.95;94.98;101593.19;5053859;28;20040;-69
2023/09/24 10:11:56;;;;;;;7.80;3.60;;;;;;;17.86;94.83;101597.84;5054018;28;20032;-69
2023/09/24 10:14:34;;;;;;;6.47;3.83;;;;;;;17.79;95.44;101606.88;5052737;28;20464;-67
2023/09/24 10:17:23;;;;;;;4.28;3.67;;;;;;;17.79;97.18;101610.41;5054319;28;20115;-68
2023/09/24 10:19:58;;;;;;;5.30;4.05;;;;;;;17.74;97.14;101615.53;5054163;28;20112;-72
2023/09/24 10:22:28;;;;;;;8.10;3.92;;;;;;;17.74;97.62;101609.31;5053801;28;20021;-71
2023/09/24 10:24:54;;;;;;;7.45;4.32;;;;;;;17.77;97.73;101598.16;5054009;28;20419;-70
2023/09/24 10:27:23;;;;;;;5.10;4.28;;;;;;;17.93;96.70;101603.31;5052551;28;20025;-71
2023/09/24 10:29:53;;;;;;;5.00;4.20;;;;;;;18.10;95.78;101610.13;5053023;28;20028;-71
2023/09/24 10:32:21;;;;;;;9.93;4.35;;;;;;;18.16;96.01;101614.75;5050421;28;20053;-69
2023/09/24 10:35:09;;;;;;;6.68;4.28;;;;;;;18.25;95.22;101610.09;5053465;28;20485;-68
2023/09/24 10:37:34;;;;;;;9.27;5.30;;;;;;;18.16;94.13;101606.66;5053867;28;20114;-67
2023/09/24 10:40:09;;;;;;;5.00;4.50;;;;;;;17.98;94.45;101598.19;5052714;28;20472;-68
2023/09/24 10:42:41;;;;;;;6.00;5.45;;;;;;;17.85;95.45;101608.81;5053504;28;20104;-72
2023/09/24 10:45:07;;;;;;;6.70;5.22;;;;;;;17.86;96.40;101613.16;5053397;28;20389;-69
2023/09/24 10:47:36;;;;;;;7.35;5.38;;;;;;;17.86;96.43;101607.78;5053657;28;20139;-69
2023/09/24 10:50:03;;;;;;;7.72;5.68;;;;;;;17.81;94.20;101607.53;5051923;28;20492;-70
2023/09/24 10:52:50;;;;;;;7.72;5.95;;;;;;;18.02;94.20;101621.03;5052087;28;20025;-71
2023/09/24 10:55:29;;;;;;;6.47;5.68;;;;;;;17.89;92.81;101604.69;5047924;28;20036;-67
2023/09/24 10:58:03;;;;;;;7.63;5.85;;;;;;;17.93;93.84;101625.72;5054795;28;20041;-70
2023/09/24 11:00:32;;;;;;;6.47;5.70;;;;;;;17.87;93.58;101625.63;5055985;28;20033;-74
2023/09/24 11:03:09;;;;;;;7.32;6.10;;;;;;;17.85;95.01;101616.88;5055048;28;20143;-73
2023/09/24 11:05:56;;;;;;;7.38;5.88;;;;;;;17.94;93.77;101640.03;5053271;28;20029;-75
2023/09/24 11:08:27;;;;;;;7.75;6.95;;;;;;;17.75;92.94;101627.16;5052315;28;20102;-76
2023/09/24 11:10:52;;;;;;;8.63;6.75;;;;;;;17.69;94.79;101627.91;5053179;28;20025;-72
2023/09/24 11:13:23;;;;;;;11.73;7.20;;;;;;;17.75;96.48;101621.75;5053227;28;20033;-70
2023/09/24 11:15:49;;;;;;;9.50;6.18;;;;;;;17.85;94.40;101622.28;5052816;28;20079;-71
2023/09/24 11:18:14;;;;;;;9.30;7.00;;;;;;;17.90;94.35;101638.72;5050923;28;20029;-70
2023/09/24 11:20:51;;;;;;;7.90;6.95;;;;;;;17.80;95.85;101622.03;5052066;28;20410;-73
2023/09/24 11:23:18;;;;;;;9.52;6.65;;;;;;;17.83;94.59;101614.38;5051241;28;20024;-71